Pagina principale
METAR-TAF:

METAR-TAF

Aeroporti :

Aeroporto di Alghero-Fertilia

Alghero, Italia

latitudine: 40-38N, longitudine: 008-17E, altezza: 23 m

Osservazione

Il bollettino è stato emesso 15 minuti fa, alle 16:20 UTC
Vento 5 kt da nord
Temperature 20°C
Umidità 56%
Pressione 1019 hPa
Visibilità 10 km o più
nessuna nube inferiore a 1500 m e nessun cumulonembo

METAR: LIEA 231620Z 35005KT CAVOK 20/11 Q1019

Ora: 18:35 (16:35 UTC)

Previsione

Il bollettino è stato emesso 5 ore e 35 minuti fa, alle 11:00 UTC
Previsione valida dal 23 alle 12 UTC al 24 alle 12 UTC
Vento 12 kt da nord-est
Visibilità 10 km o più
nessuna nube inferiore a 1500 m e nessun cumulonembo
Evoluzione graduale
dal 23 alle 17 UTC al 23 alle 19 UTC
Vento 5 kt da direzioni variabili
Evoluzione graduale
dal 24 alle 08 UTC al 24 alle 10 UTC
Vento 10 kt da ovest

TAF: LIEA 231100Z 2312/2412 04012KT CAVOK BECMG 2317/2319 VRB05KT BECMG 2408/2410 26010KT

Osservazioni e previsioni meteorologiche di più di 4000 aeroporti (messaggi METAR e TAF).

Le stazioni disponibili sono rappresentate dai dischi gialli e rossi sulla carta.

Puntare il mouse per vedere il nome della stazione.

Clicca sopra per visualizzare le osservazioni e previsioni meteorologiche.

Per cambiare la mappa : fare clic sui pulsanti verdi con una croce nera per ingrandire, il pulsante verde con un trattino per diminuire, o sulla freccia verde per le mappe adiacenti.


METAR-TAF: